Time;durP1;ratioP1;P1;durP2;ratioP2;P2;SDS_P1;SDS_P2;PMS_P1;PMS_P2;Temp;Humidity;BMP_temperature;BMP_pressure;BME280_temperature;BME280_humidity;BME280_pressure;Samples;Min_cycle;Max_cycle;Signal;HPM_P1;HPM_P2
2023/03/25 00:00:15;;;;;;;8.15;2.65;;;11.20;99.90;;;;;;4954907;28;100149;-73
2023/03/25 00:02:50;;;;;;;6.78;2.20;;;11.20;99.90;;;;;;4953541;28;102329;-72
2023/03/25 00:05:20;;;;;;;6.03;2.13;;;11.20;99.90;;;;;;4954503;28;98615;-73
2023/03/25 00:07:51;;;;;;;7.15;2.42;;;11.20;99.90;;;;;;4970318;28;98442;-73
2023/03/25 00:10:18;;;;;;;5.95;2.20;;;11.30;99.90;;;;;;4970157;28;99343;-72
2023/03/25 00:12:45;;;;;;;7.75;2.03;;;11.30;99.90;;;;;;4969719;28;101815;-73
2023/03/25 00:15:15;;;;;;;9.23;2.10;;;11.30;99.90;;;;;;4970485;28;98637;-73
2023/03/25 00:17:42;;;;;;;9.40;2.92;;;11.30;99.90;;;;;;4955532;28;97769;-73
2023/03/25 00:20:10;;;;;;;8.48;2.60;;;11.30;99.90;;;;;;4955129;28;99281;-73
2023/03/25 00:22:42;;;;;;;7.82;2.38;;;11.30;99.90;;;;;;4954460;28;99061;-73
2023/03/25 00:25:16;;;;;;;7.10;2.23;;;11.40;99.90;;;;;;4954938;28;99558;-73
2023/03/25 00:27:45;;;;;;;9.90;2.50;;;11.30;99.90;;;;;;4953763;28;98883;-72
2023/03/25 00:30:15;;;;;;;8.68;2.08;;;11.30;99.90;;;;;;4969748;28;104823;-73
2023/03/25 00:32:51;;;;;;;9.85;2.20;;;11.30;99.90;;;;;;4953378;28;101483;-73
2023/03/25 00:35:19;;;;;;;7.22;1.83;;;11.30;99.90;;;;;;4953797;28;98553;-72
2023/03/25 00:37:58;;;;;;;9.07;1.70;;;11.30;99.90;;;;;;4953540;28;98671;-72
2023/03/25 00:40:33;;;;;;;6.85;2.10;;;11.30;99.90;;;;;;4953454;28;100323;-72
2023/03/25 00:43:02;;;;;;;6.95;1.80;;;11.30;99.90;;;;;;4938107;28;102012;-73
2023/03/25 00:45:30;;;;;;;9.45;2.20;;;11.30;99.90;;;;;;4955072;28;98485;-73
2023/03/25 00:47:57;;;;;;;10.15;1.80;;;11.40;99.90;;;;;;4953206;28;99369;-73
2023/03/25 00:50:25;;;;;;;7.93;2.35;;;11.40;99.90;;;;;;4952701;28;102730;-73
2023/03/25 00:52:54;;;;;;;6.13;1.70;;;11.40;99.90;;;;;;4936873;28;102351;-73
2023/03/25 00:55:21;;;;;;;8.63;2.20;;;11.40;99.90;;;;;;4969657;28;99354;-73
2023/03/25 00:57:48;;;;;;;7.85;2.05;;;11.40;99.90;;;;;;4969525;28;98627;-73
2023/03/25 01:00:17;;;;;;;7.20;2.05;;;11.50;99.90;;;;;;4954303;28;99597;-72
2023/03/25 01:02:44;;;;;;;7.10;2.40;;;11.50;99.90;;;;;;4969363;28;98939;-73
2023/03/25 01:05:11;;;;;;;6.18;2.20;;;11.50;99.90;;;;;;4953067;28;98505;-72
2023/03/25 01:07:40;;;;;;;6.57;3.00;;;11.50;99.90;;;;;;4955185;28;98377;-72
2023/03/25 01:10:07;;;;;;;5.70;2.60;;;11.50;99.90;;;;;;4952378;28;105951;-73
2023/03/25 01:12:34;;;;;;;7.68;2.60;;;11.50;99.90;;;;;;4954379;28;99145;-73
2023/03/25 01:15:01;;;;;;;4.70;2.65;;;11.50;99.90;;;;;;4952591;28;99272;-73
2023/03/25 01:17:28;;;;;;;7.03;3.35;;;11.40;99.90;;;;;;4954496;28;98509;-73
2023/03/25 01:19:55;;;;;;;6.20;2.90;;;11.40;99.90;;;;;;4968825;28;100256;-73
2023/03/25 01:22:22;;;;;;;8.00;2.97;;;11.30;99.90;;;;;;4968802;28;99724;-73
2023/03/25 01:24:49;;;;;;;7.30;3.17;;;11.40;99.90;;;;;;4969370;28;98605;-72
2023/03/25 01:27:16;;;;;;;7.28;2.97;;;11.30;99.90;;;;;;4954487;28;98500;-73
2023/03/25 01:29:43;;;;;;;8.07;3.00;;;11.30;99.90;;;;;;4936166;28;102047;-73
2023/03/25 01:32:10;;;;;;;8.73;3.28;;;11.30;99.90;;;;;;4952531;28;101732;-73
2023/03/25 01:34:38;;;;;;;9.32;3.90;;;11.30;99.90;;;;;;4969437;28;98622;-72
2023/03/25 01:37:06;;;;;;;11.48;3.97;;;11.30;99.90;;;;;;4951815;28;98704;-73
2023/03/25 01:39:33;;;;;;;7.72;3.50;;;11.20;99.90;;;;;;4951977;28;102604;-73
2023/03/25 01:42:00;;;;;;;10.13;4.00;;;11.20;99.90;;;;;;4967938;28;113549;-73
2023/03/25 01:44:28;;;;;;;8.68;4.57;;;11.10;99.90;;;;;;4952749;28;98701;-73
2023/03/25 01:47:00;;;;;;;9.35;4.30;;;11.10;99.90;;;;;;4952313;28;98559;-73
2023/03/25 01:49:37;;;;;;;13.32;4.75;;;11.10;99.90;;;;;;4968488;28;101886;-72
2023/03/25 01:52:20;;;;;;;7.53;4.43;;;11.00;99.90;;;;;;4952237;28;99216;-73
2023/03/25 01:54:49;;;;;;;7.25;4.05;;;10.90;99.90;;;;;;4954185;28;98573;-73
2023/03/25 01:57:19;;;;;;;7.20;4.72;;;10.90;99.90;;;;;;4953840;28;97764;-73
2023/03/25 01:59:46;;;;;;;9.85;5.57;;;10.90;99.90;;;;;;4952053;28;100329;-73
2023/03/25 02:02:17;;;;;;;8.93;4.70;;;10.80;99.90;;;;;;4967873;28;101586;-73
2023/03/25 02:04:57;;;;;;;11.10;4.63;;;10.90;99.90;;;;;;4968370;28;99408;-73
2023/03/25 02:07:31;;;;;;;10.90;4.53;;;10.90;99.90;;;;;;4968518;28;98501;-73
2023/03/25 02:10:01;;;;;;;9.48;4.15;;;10.90;99.90;;;;;;4951931;28;101990;-73
2023/03/25 02:12:28;;;;;;;8.93;4.10;;;10.80;99.90;;;;;;4951939;28;99032;-73
2023/03/25 02:14:56;;;;;;;11.52;4.10;;;10.80;99.90;;;;;;4952206;28;98584;-73
2023/03/25 02:17:38;;;;;;;11.52;4.07;;;10.80;99.90;;;;;;4968219;28;98715;-73
2023/03/25 02:20:34;;;;;;;7.57;3.22;;;10.70;99.90;;;;;;4951671;28;101893;-73
2023/03/25 02:23:41;;;;;;;10.60;2.97;;;10.70;99.90;;;;;;4966636;28;98931;-73
2023/03/25 02:26:40;;;;;;;13.93;3.42;;;10.80;99.90;;;;;;4950543;28;98598;-73
2023/03/25 02:29:32;;;;;;;9.75;2.95;;;10.70;99.90;;;;;;4919500;28;99213;-73
2023/03/25 02:32:14;;;;;;;10.45;3.40;;;10.70;99.90;;;;;;4966326;28;99948;-73
2023/03/25 02:34:59;;;;;;;8.55;3.08;;;10.70;99.90;;;;;;4950179;28;102222;-73
2023/03/25 02:37:50;;;;;;;9.40;2.95;;;10.60;99.90;;;;;;4950564;28;98592;-73
2023/03/25 02:44:55;;;;;;;8.30;2.40;;;10.60;99.90;;;;;;4965470;28;101620;-73
2023/03/25 02:47:27;;;;;;;10.65;3.20;;;10.60;99.90;;;;;;4871441;28;101734;-72
2023/03/25 02:50:08;;;;;;;12.82;3.55;;;10.50;99.90;;;;;;4936086;28;98504;-72
2023/03/25 02:52:45;;;;;;;9.38;2.90;;;10.60;99.90;;;;;;4950908;28;98338;-73
2023/03/25 02:55:16;;;;;;;16.58;4.10;;;10.60;99.90;;;;;;4966335;28;101947;-72
2023/03/25 02:57:47;;;;;;;14.52;3.47;;;10.50;99.90;;;;;;4949829;28;101415;-73
2023/03/25 03:00:19;;;;;;;9.48;2.78;;;10.50;99.90;;;;;;4950059;28;99285;-73
2023/03/25 03:02:58;;;;;;;9.65;3.30;;;10.50;99.90;;;;;;4951730;28;98426;-73
2023/03/25 03:05:33;;;;;;;9.98;2.88;;;10.50;99.90;;;;;;4966312;28;101643;-73
2023/03/25 03:08:17;;;;;;;8.00;2.90;;;10.50;99.90;;;;;;4951084;28;100161;-72
2023/03/25 03:11:14;;;;;;;11.00;3.05;;;10.50;99.90;;;;;;4951804;28;98531;-73
2023/03/25 03:13:47;;;;;;;12.00;3.55;;;10.50;99.90;;;;;;4951529;28;98509;-73
2023/03/25 03:16:48;;;;;;;12.18;3.22;;;10.50;99.90;;;;;;4951074;28;99302;-73
2023/03/25 03:19:37;;;;;;;8.38;2.90;;;10.50;99.90;;;;;;4951374;28;99110;-73
2023/03/25 03:22:34;;;;;;;9.18;2.65;;;10.40;99.90;;;;;;4908881;28;1228191;-72
2023/03/25 03:25:13;;;;;;;13.45;2.92;;;10.40;99.90;;;;;;4952716;28;98511;-72
2023/03/25 03:27:53;;;;;;;15.25;3.65;;;10.30;99.90;;;;;;4966816;28;102582;-73
2023/03/25 03:30:39;;;;;;;14.63;2.55;;;10.20;99.90;;;;;;4952422;28;99900;-73
2023/03/25 03:33:12;;;;;;;12.52;3.50;;;10.20;99.90;;;;;;4952648;28;98605;-73
2023/03/25 03:35:48;;;;;;;8.82;3.05;;;10.20;99.90;;;;;;4952584;28;98888;-73
2023/03/25 03:38:21;;;;;;;8.75;2.55;;;10.20;99.90;;;;;;4951875;28;100195;-72
2023/03/25 03:40:57;;;;;;;14.48;3.60;;;10.20;99.90;;;;;;4950764;28;101671;-72
2023/03/25 03:43:33;;;;;;;11.52;3.83;;;10.20;99.90;;;;;;4951204;28;98669;-73
2023/03/25 03:46:07;;;;;;;16.50;3.40;;;10.20;99.90;;;;;;4952847;28;97698;-73
2023/03/25 03:48:54;;;;;;;;;;;10.20;99.90;;;;;;4952501;28;99005;-72
2023/03/25 03:51:50;;;;;;;13.38;2.65;;;10.10;99.90;;;;;;4951962;28;101074;-73
2023/03/25 03:54:22;;;;;;;8.65;2.70;;;10.20;99.90;;;;;;4949459;28;99245;-72
2023/03/25 03:56:54;;;;;;;8.05;2.58;;;10.20;99.90;;;;;;4950861;28;98539;-73
2023/03/25 03:59:41;;;;;;;14.45;3.45;;;10.20;99.90;;;;;;4950632;28;101691;-72
2023/03/25 04:02:22;;;;;;;17.63;4.13;;;10.30;99.90;;;;;;4954297;28;98964;-72
2023/03/25 04:04:52;;;;;;;17.08;3.33;;;10.20;99.90;;;;;;4955911;28;98565;-72
2023/03/25 04:07:40;;;;;;;10.57;2.75;;;10.20;99.90;;;;;;4954258;28;98594;-73
2023/03/25 04:10:19;;;;;;;10.43;3.20;;;10.30;99.90;;;;;;4953528;28;102071;-73
2023/03/25 04:12:54;;;;;;;12.48;2.97;;;10.30;99.90;;;;;;4955871;28;99091;-73
2023/03/25 04:15:21;;;;;;;13.75;3.75;;;10.30;99.90;;;;;;4955629;28;98855;-73
2023/03/25 04:17:49;;;;;;;11.45;2.72;;;10.30;99.90;;;;;;4954091;28;98684;-72
2023/03/25 04:20:22;;;;;;;7.78;2.25;;;10.30;99.90;;;;;;4954468;28;99780;-73
2023/03/25 04:22:51;;;;;;;14.82;2.80;;;10.30;99.90;;;;;;4969632;28;106137;-73
2023/03/25 04:25:20;;;;;;;9.68;3.38;;;10.30;99.90;;;;;;4955291;28;98666;-73
2023/03/25 04:27:47;;;;;;;9.38;2.30;;;10.30;99.90;;;;;;4938272;28;98536;-73
2023/03/25 04:30:18;;;;;;;10.77;3.30;;;10.30;99.90;;;;;;4954522;28;99483;-73
2023/03/25 04:32:46;;;;;;;13.38;3.03;;;10.30;99.90;;;;;;4954962;28;99333;-72
2023/03/25 04:35:15;;;;;;;10.05;3.10;;;10.30;99.90;;;;;;4954974;28;98451;-73
2023/03/25 04:37:47;;;;;;;12.35;3.55;;;10.30;99.90;;;;;;4938418;28;98418;-73
2023/03/25 04:40:17;;;;;;;12.90;3.20;;;10.30;99.90;;;;;;4969761;28;99208;-72
2023/03/25 04:42:47;;;;;;;14.63;2.95;;;10.30;99.90;;;;;;4954464;28;99602;-73
2023/03/25 04:45:15;;;;;;;12.73;3.42;;;10.30;99.90;;;;;;4954579;28;99760;-73
2023/03/25 04:47:46;;;;;;;8.73;3.25;;;10.30;99.90;;;;;;4954514;28;100956;-73
2023/03/25 04:50:21;;;;;;;12.60;3.40;;;10.30;99.90;;;;;;4953082;28;100659;-72
2023/03/25 04:52:50;;;;;;;14.30;3.65;;;10.30;99.90;;;;;;4954809;28;98912;-73
2023/03/25 04:55:18;;;;;;;16.67;3.33;;;10.30;99.90;;;;;;4937120;28;98690;-73
2023/03/25 04:57:50;;;;;;;10.20;3.55;;;10.30;99.90;;;;;;4953433;28;98630;-73
2023/03/25 05:00:21;;;;;;;11.13;3.53;;;10.30;99.90;;;;;;4969155;28;99287;-73
2023/03/25 05:02:50;;;;;;;10.73;3.50;;;10.20;99.90;;;;;;4954584;28;99158;-73
2023/03/25 05:05:20;;;;;;;15.98;3.58;;;10.20;99.90;;;;;;4953264;28;98561;-73
2023/03/25 05:07:48;;;;;;;9.10;3.40;;;10.20;99.90;;;;;;4953192;28;98971;-73
2023/03/25 05:10:20;;;;;;;12.48;3.05;;;10.30;99.90;;;;;;4952565;28;100180;-73
2023/03/25 05:12:49;;;;;;;13.13;3.25;;;10.20;99.90;;;;;;4951778;28;102532;-73
2023/03/25 05:15:16;;;;;;;11.18;3.55;;;10.20;99.90;;;;;;4969410;28;98492;-72
2023/03/25 05:17:43;;;;;;;15.43;3.67;;;10.20;99.90;;;;;;4952908;28;98668;-72
2023/03/25 05:20:12;;;;;;;12.15;3.60;;;10.30;99.90;;;;;;4952535;28;101827;-72
2023/03/25 05:22:40;;;;;;;15.25;4.32;;;10.20;99.90;;;;;;4953694;28;99151;-73
2023/03/25 05:25:08;;;;;;;10.32;3.05;;;10.20;99.90;;;;;;4952940;28;99137;-73
2023/03/25 05:27:37;;;;;;;11.65;4.28;;;10.20;99.90;;;;;;4969813;28;97791;-72
2023/03/25 05:30:05;;;;;;;9.52;3.45;;;10.20;99.90;;;;;;4954093;28;99333;-73
2023/03/25 05:32:32;;;;;;;11.07;3.65;;;10.20;99.90;;;;;;4953762;28;102241;-73
2023/03/25 05:35:00;;;;;;;14.73;3.72;;;10.30;99.90;;;;;;4954043;28;99366;-73
2023/03/25 05:37:27;;;;;;;11.85;3.20;;;10.30;99.90;;;;;;4954067;28;98563;-72
2023/03/25 05:39:55;;;;;;;10.70;3.83;;;10.30;99.90;;;;;;4953858;28;99429;-72
2023/03/25 05:42:22;;;;;;;10.75;2.67;;;10.20;99.90;;;;;;4953809;28;98466;-73
2023/03/25 05:44:52;;;;;;;10.77;3.13;;;10.20;99.90;;;;;;4952748;28;98755;-73
2023/03/25 05:47:22;;;;;;;10.27;3.42;;;10.20;99.90;;;;;;4954301;28;99008;-72
2023/03/25 05:49:50;;;;;;;10.88;2.55;;;10.10;99.90;;;;;;4953492;28;99348;-73
2023/03/25 05:52:19;;;;;;;8.90;3.00;;;10.20;99.90;;;;;;4953610;28;99017;-73
2023/03/25 05:54:50;;;;;;;10.60;3.40;;;10.20;99.90;;;;;;4954005;28;98483;-73
2023/03/25 05:57:17;;;;;;;9.43;2.67;;;10.10;99.90;;;;;;4952715;28;99254;-73
2023/03/25 05:59:45;;;;;;;10.48;2.50;;;10.10;99.90;;;;;;4952666;28;110793;-73
2023/03/25 06:02:15;;;;;;;10.00;3.85;;;10.10;99.90;;;;;;4951733;28;99926;-73
2023/03/25 06:04:43;;;;;;;13.52;3.45;;;10.10;99.90;;;;;;4952714;28;98902;-73
2023/03/25 06:07:18;;;;;;;10.57;3.83;;;10.20;99.90;;;;;;4953761;28;98507;-73
2023/03/25 06:09:46;;;;;;;10.82;3.95;;;10.20;99.90;;;;;;4953377;28;99415;-73
2023/03/25 06:12:21;;;;;;;7.88;3.20;;;10.20;99.90;;;;;;4953244;28;98942;-73
2023/03/25 06:14:53;;;;;;;12.60;4.45;;;10.30;99.90;;;;;;4953051;28;99273;-73
2023/03/25 06:17:21;;;;;;;14.27;4.22;;;10.30;99.90;;;;;;4953643;28;97707;-73
2023/03/25 06:19:49;;;;;;;12.85;4.18;;;10.30;99.90;;;;;;4953145;28;99326;-73
2023/03/25 06:22:16;;;;;;;9.70;4.28;;;10.40;99.90;;;;;;4951125;28;99045;-73
2023/03/25 06:24:43;;;;;;;11.27;3.92;;;10.30;99.90;;;;;;4952866;28;99260;-73
2023/03/25 06:27:16;;;;;;;12.20;3.70;;;10.40;99.90;;;;;;4951943;28;98565;-73
2023/03/25 06:29:44;;;;;;;12.80;3.35;;;10.40;99.90;;;;;;4968063;28;99239;-73
2023/03/25 06:32:13;;;;;;;11.18;3.55;;;10.40;99.90;;;;;;4951627;28;101576;-72
2023/03/25 06:34:42;;;;;;;10.43;2.97;;;10.40;99.90;;;;;;4951463;28;100707;-73
2023/03/25 06:37:09;;;;;;;11.93;3.63;;;10.50;99.90;;;;;;4953276;28;98519;-73
2023/03/25 06:39:36;;;;;;;9.65;3.20;;;10.50;99.90;;;;;;4951049;28;100684;-73
2023/03/25 06:42:11;;;;;;;5.35;2.33;;;10.50;99.90;;;;;;4951964;28;100950;-72
2023/03/25 06:45:06;;;;;;;10.50;2.97;;;10.50;99.90;;;;;;4951969;28;98500;-73
2023/03/25 06:47:59;;;;;;;9.02;2.63;;;10.50;99.90;;;;;;4951493;28;98593;-73
2023/03/25 06:50:26;;;;;;;8.68;3.00;;;10.50;99.90;;;;;;4952268;28;99959;-73
2023/03/25 06:52:53;;;;;;;13.35;4.05;;;10.50;99.90;;;;;;4951104;28;102548;-73
2023/03/25 06:55:20;;;;;;;11.02;3.15;;;10.50;99.90;;;;;;4968045;28;99191;-73
2023/03/25 06:57:47;;;;;;;10.25;3.65;;;10.50;99.90;;;;;;4952870;28;98630;-72
2023/03/25 07:00:19;;;;;;;10.02;3.10;;;10.40;99.90;;;;;;4967406;28;99441;-72
2023/03/25 07:02:46;;;;;;;14.75;3.70;;;10.40;99.90;;;;;;4953113;28;99069;-73
2023/03/25 07:05:13;;;;;;;10.15;3.45;;;10.40;99.90;;;;;;4951856;28;98949;-72
2023/03/25 07:07:40;;;;;;;14.82;3.13;;;10.40;99.90;;;;;;4953684;28;98700;-72
2023/03/25 07:10:07;;;;;;;10.77;2.70;;;10.50;99.90;;;;;;4952671;28;99342;-72
2023/03/25 07:12:34;;;;;;;11.90;2.92;;;10.50;99.90;;;;;;4967466;28;98860;-73
2023/03/25 07:15:01;;;;;;;7.57;2.70;;;10.70;99.90;;;;;;4967660;28;99803;-73
2023/03/25 07:17:29;;;;;;;10.80;2.78;;;10.90;99.90;;;;;;4951355;28;98581;-73
2023/03/25 07:19:56;;;;;;;10.32;2.90;;;11.10;99.90;;;;;;4952462;28;99248;-73
2023/03/25 07:22:24;;;;;;;7.97;2.88;;;11.20;99.90;;;;;;4952192;28;99095;-73
2023/03/25 07:24:51;;;;;;;17.50;2.80;;;11.30;99.90;;;;;;4951537;28;98561;-73
2023/03/25 07:27:18;;;;;;;9.55;3.47;;;11.50;99.90;;;;;;4951554;28;98564;-73
2023/03/25 07:29:54;;;;;;;6.75;2.47;;;11.70;99.90;;;;;;4950879;28;101316;-73
2023/03/25 07:32:21;;;;;;;10.27;2.92;;;11.80;99.90;;;;;;4952514;28;99121;-73
2023/03/25 07:34:48;;;;;;;11.15;2.65;;;11.90;99.90;;;;;;4951540;28;98571;-73
2023/03/25 07:37:15;;;;;;;11.90;2.70;;;12.00;99.90;;;;;;4953957;28;98549;-73
2023/03/25 07:39:42;;;;;;;11.23;2.40;;;12.10;99.90;;;;;;4955120;28;100082;-73
2023/03/25 07:42:09;;;;;;;11.45;3.33;;;12.30;99.90;;;;;;4955774;28;99550;-73
2023/03/25 07:45:06;;;;;;;12.13;2.88;;;12.60;99.90;;;;;;4924114;28;98817;-73
2023/03/25 07:47:34;;;;;;;11.98;2.92;;;12.90;99.90;;;;;;4954313;28;98711;-73
2023/03/25 07:50:01;;;;;;;10.70;3.33;;;13.10;99.90;;;;;;4955362;28;99435;-73
2023/03/25 07:52:28;;;;;;;14.40;3.20;;;13.20;99.90;;;;;;4970156;28;99187;-73
2023/03/25 07:54:55;;;;;;;12.15;3.30;;;13.10;99.90;;;;;;4970599;28;98536;-73
2023/03/25 07:57:22;;;;;;;15.35;3.85;;;13.00;99.90;;;;;;4956008;28;97741;-73
2023/03/25 07:59:49;;;;;;;14.32;3.10;;;12.80;99.90;;;;;;4969711;28;107806;-73
2023/03/25 08:02:16;;;;;;;8.38;2.60;;;12.60;99.90;;;;;;4955427;28;99123;-73
2023/03/25 08:04:43;;;;;;;14.00;3.03;;;12.40;99.90;;;;;;4954110;28;99428;-73
2023/03/25 08:07:10;;;;;;;10.30;2.55;;;12.30;99.90;;;;;;4954112;28;98609;-73
2023/03/25 08:09:37;;;;;;;12.93;2.80;;;12.00;99.90;;;;;;4953420;28;102198;-73
2023/03/25 08:12:04;;;;;;;9.60;2.40;;;11.80;99.90;;;;;;4955048;28;98947;-73
2023/03/25 08:14:31;;;;;;;10.48;2.40;;;11.70;99.90;;;;;;4955333;28;98634;-73
2023/03/25 08:16:58;;;;;;;7.97;2.45;;;11.60;99.90;;;;;;4955535;28;98597;-73
2023/03/25 08:19:25;;;;;;;9.15;3.17;;;11.60;99.90;;;;;;4969888;28;102620;-73
2023/03/25 08:21:52;;;;;;;11.82;3.42;;;11.60;99.90;;;;;;4954383;28;99022;-73
2023/03/25 08:24:19;;;;;;;7.53;2.03;;;11.60;99.90;;;;;;4970230;28;98617;-73
2023/03/25 08:26:46;;;;;;;10.48;2.00;;;11.70;99.90;;;;;;4955054;28;98553;-73
2023/03/25 08:29:16;;;;;;;12.65;2.65;;;11.80;99.90;;;;;;4954575;28;100058;-73
2023/03/25 08:31:45;;;;;;;13.05;2.72;;;12.00;99.90;;;;;;4953009;28;102744;-73
2023/03/25 08:34:12;;;;;;;11.93;3.08;;;12.20;99.90;;;;;;4953329;28;98629;-73
2023/03/25 08:36:39;;;;;;;11.70;2.20;;;12.30;99.90;;;;;;4953544;28;98642;-73
2023/03/25 08:39:10;;;;;;;10.82;2.40;;;12.30;99.90;;;;;;4969446;28;99408;-73
2023/03/25 08:41:38;;;;;;;10.18;2.50;;;12.30;99.90;;;;;;4953548;28;99911;-73
2023/03/25 08:44:06;;;;;;;10.98;2.38;;;12.10;99.90;;;;;;4953770;28;98631;-73
2023/03/25 08:46:33;;;;;;;11.10;2.72;;;12.10;99.90;;;;;;4970285;28;98614;-73
2023/03/25 08:49:00;;;;;;;10.00;2.75;;;12.10;99.90;;;;;;4953186;28;102016;-73
2023/03/25 08:51:27;;;;;;;10.68;2.60;;;12.10;99.90;;;;;;4954078;28;107364;-72
2023/03/25 08:53:54;;;;;;;13.57;2.33;;;12.10;99.90;;;;;;4936836;28;99289;-73
2023/03/25 08:56:21;;;;;;;16.42;2.85;;;12.20;99.90;;;;;;4953804;28;98610;-73
2023/03/25 08:58:48;;;;;;;11.07;2.88;;;12.30;99.90;;;;;;4952762;28;101837;-73
2023/03/25 09:01:15;;;;;;;10.07;2.38;;;12.40;99.90;;;;;;4969382;28;101582;-73
2023/03/25 09:03:42;;;;;;;11.27;2.60;;;12.80;99.90;;;;;;4954233;28;98525;-73
2023/03/25 09:06:09;;;;;;;11.00;2.45;;;12.90;99.90;;;;;;4954663;28;98558;-72
2023/03/25 09:08:36;;;;;;;14.55;3.13;;;13.00;99.90;;;;;;4968972;28;100561;-73
2023/03/25 09:11:03;;;;;;;15.50;3.33;;;13.10;99.90;;;;;;4953443;28;101624;-73
2023/03/25 09:13:30;;;;;;;15.90;3.35;;;13.10;99.90;;;;;;4954439;28;98513;-73
2023/03/25 09:15:58;;;;;;;15.70;2.45;;;13.10;99.90;;;;;;4953484;28;99224;-72
2023/03/25 09:18:25;;;;;;;13.15;2.83;;;13.00;99.90;;;;;;4953459;28;100088;-73
2023/03/25 09:20:58;;;;;;;16.88;3.38;;;12.90;99.90;;;;;;4952424;28;102534;-73
2023/03/25 09:23:25;;;;;;;11.90;2.80;;;12.90;99.90;;;;;;4954425;28;98725;-72
2023/03/25 09:25:52;;;;;;;12.85;2.85;;;12.70;99.90;;;;;;4952784;28;98507;-73
2023/03/25 09:28:19;;;;;;;17.02;3.25;;;12.70;99.90;;;;;;4952031;28;119726;-72
2023/03/25 09:30:46;;;;;;;17.08;2.95;;;12.70;99.90;;;;;;4952072;28;101695;-73
2023/03/25 09:33:13;;;;;;;13.90;3.42;;;12.70;99.90;;;;;;4954567;28;99062;-72
2023/03/25 09:35:40;;;;;;;13.40;2.92;;;12.60;99.90;;;;;;4937155;28;97872;-73
2023/03/25 09:38:07;;;;;;;17.67;3.08;;;12.80;99.90;;;;;;4954129;28;99213;-73
2023/03/25 09:40:34;;;;;;;14.90;3.15;;;13.00;99.90;;;;;;4952422;28;101544;-73
2023/03/25 09:43:22;;;;;;;12.82;2.60;;;13.00;99.90;;;;;;4953272;28;99229;-73
2023/03/25 09:45:49;;;;;;;10.75;2.88;;;13.00;99.90;;;;;;4953986;28;98497;-73
2023/03/25 09:48:40;;;;;;;12.20;2.95;;;12.80;99.90;;;;;;4968419;28;99408;-73
2023/03/25 09:51:20;;;;;;;10.45;3.13;;;13.10;99.90;;;;;;4953912;28;99000;-73
2023/03/25 09:54:03;;;;;;;13.38;3.13;;;13.30;99.90;;;;;;4954092;28;98453;-73
2023/03/25 09:56:35;;;;;;;16.88;2.83;;;13.60;99.90;;;;;;4969031;28;98510;-72
2023/03/25 09:59:09;;;;;;;12.65;3.08;;;13.80;99.90;;;;;;4967867;28;99442;-72
2023/03/25 10:01:40;;;;;;;14.20;3.13;;;13.80;99.90;;;;;;4953752;28;99031;-72
2023/03/25 10:04:56;;;;;;;12.77;2.65;;;14.00;99.90;;;;;;4953866;28;98459;-73
2023/03/25 10:07:56;;;;;;;10.95;3.03;;;14.10;99.90;;;;;;4968936;28;98612;-73
2023/03/25 10:10:35;;;;;;;13.38;2.78;;;13.90;99.90;;;;;;4952956;28;99836;-73
2023/03/25 10:13:21;;;;;;;7.13;1.75;;;13.70;99.90;;;;;;4951810;28;102310;-73
2023/03/25 10:15:47;;;;;;;9.73;2.00;;;13.70;99.90;;;;;;4952417;28;98520;-73
2023/03/25 10:18:21;;;;;;;12.75;2.90;;;13.60;99.90;;;;;;4968002;28;98667;-73
2023/03/25 10:20:59;;;;;;;10.85;2.60;;;13.60;99.90;;;;;;4951655;28;102002;-73
2023/03/25 10:23:31;;;;;;;9.88;2.80;;;13.60;99.90;;;;;;4968035;28;101728;-73
2023/03/25 10:26:15;;;;;;;8.73;2.30;;;13.60;99.90;;;;;;4968326;28;98688;-73
2023/03/25 10:28:49;;;;;;;8.95;2.20;;;13.60;99.90;;;;;;4952578;28;98177;-73
2023/03/25 10:31:22;;;;;;;13.52;3.00;;;13.50;99.90;;;;;;4953101;28;100884;-73
2023/03/25 10:33:55;;;;;;;11.63;2.73;;;13.70;99.90;;;;;;4968277;28;99019;-73
2023/03/25 10:36:39;;;;;;;13.20;2.47;;;13.80;99.90;;;;;;4951724;28;99366;-72
2023/03/25 10:39:15;;;;;;;7.43;2.70;;;13.90;99.90;;;;;;4953156;28;98564;-73
2023/03/25 10:41:45;;;;;;;11.57;2.88;;;14.20;99.90;;;;;;4953072;28;99421;-73
2023/03/25 10:44:12;;;;;;;9.90;3.40;;;14.30;99.90;;;;;;4967390;28;101512;-72
2023/03/25 10:47:03;;;;;;;12.30;3.20;;;14.40;99.90;;;;;;4953001;28;98520;-73
2023/03/25 10:49:33;;;;;;;11.90;2.53;;;14.50;99.90;;;;;;4951627;28;98520;-73
2023/03/25 10:52:01;;;;;;;8.40;2.83;;;14.50;99.90;;;;;;4952332;28;99192;-73
2023/03/25 10:54:36;;;;;;;11.02;2.55;;;14.40;99.90;;;;;;4953090;28;99056;-73
2023/03/25 10:57:07;;;;;;;18.10;3.20;;;14.30;99.90;;;;;;4951772;28;98623;-73
2023/03/25 10:59:49;;;;;;;12.20;2.85;;;14.00;99.90;;;;;;4968091;28;98645;-73
2023/03/25 11:02:24;;;;;;;14.35;2.97;;;13.90;99.90;;;;;;4952057;28;99974;-73
2023/03/25 11:04:54;;;;;;;10.57;2.50;;;13.60;99.90;;;;;;4967539;28;99996;-73
2023/03/25 11:07:40;;;;;;;9.15;2.60;;;13.60;99.90;;;;;;4951715;28;98658;-73
2023/03/25 11:10:17;;;;;;;11.77;3.38;;;13.70;99.90;;;;;;4967947;28;98674;-72
2023/03/25 11:12:45;;;;;;;14.25;2.88;;;14.00;99.90;;;;;;4938587;28;105936;-73
2023/03/25 11:15:19;;;;;;;10.75;2.80;;;14.10;99.90;;;;;;4954443;28;101475;-73
2023/03/25 11:17:54;;;;;;;11.45;3.13;;;14.30;99.90;;;;;;4955142;28;98627;-73
2023/03/25 11:20:26;;;;;;;11.10;2.65;;;14.40;99.90;;;;;;4955836;28;98142;-73
2023/03/25 11:22:57;;;;;;;10.35;2.92;;;14.50;99.90;;;;;;4970727;28;99208;-73
2023/03/25 11:25:31;;;;;;;11.10;2.80;;;14.60;99.90;;;;;;4954574;28;99196;-73
2023/03/25 11:28:02;;;;;;;13.85;3.00;;;14.70;99.90;;;;;;4970625;28;99278;-73
2023/03/25 11:30:28;;;;;;;11.88;2.92;;;14.80;99.90;;;;;;4956228;28;98523;-73
2023/03/25 11:33:03;;;;;;;11.43;2.45;;;14.80;99.90;;;;;;4970497;28;110370;-73
2023/03/25 11:35:36;;;;;;;13.43;2.42;;;14.70;99.90;;;;;;4955926;28;98793;-73
2023/03/25 11:38:21;;;;;;;11.88;3.05;;;14.40;99.90;;;;;;4971043;28;98519;-73
2023/03/25 11:40:53;;;;;;;9.85;3.20;;;14.30;99.90;;;;;;4956194;28;98527;-73
2023/03/25 11:43:36;;;;;;;11.23;2.95;;;14.40;99.90;;;;;;4970410;28;101933;-73
2023/03/25 11:46:19;;;;;;;12.13;2.75;;;14.50;99.90;;;;;;4956096;28;99107;-73
2023/03/25 11:48:49;;;;;;;12.38;2.10;;;14.60;99.90;;;;;;4956158;28;98429;-73
2023/03/25 11:51:26;;;;;;;14.52;3.28;;;14.80;99.90;;;;;;4955691;28;99140;-73
2023/03/25 11:54:10;;;;;;;13.75;2.78;;;15.10;99.90;;;;;;4955373;28;100008;-73
2023/03/25 11:56:39;;;;;;;10.23;2.60;;;15.30;99.90;;;;;;4954331;28;99857;-73
2023/03/25 11:59:25;;;;;;;15.65;2.92;;;15.30;99.90;;;;;;4970632;28;98505;-73
2023/03/25 12:02:01;;;;;;;11.90;2.85;;;15.50;99.90;;;;;;4971017;28;98515;-73
2023/03/25 12:04:30;;;;;;;13.20;2.95;;;15.60;99.90;;;;;;4953646;28;103709;-73
2023/03/25 12:07:09;;;;;;;11.30;2.60;;;15.60;99.90;;;;;;4970247;28;99117;-73
2023/03/25 12:09:36;;;;;;;9.50;2.40;;;15.60;99.90;;;;;;4955675;28;98427;-73
2023/03/25 12:12:28;;;;;;;8.25;2.50;;;15.70;99.90;;;;;;4955468;28;97809;-73
2023/03/25 12:15:10;;;;;;;12.82;2.90;;;15.90;99.90;;;;;;4953699;28;101966;-73
2023/03/25 12:17:59;;;;;;;8.00;2.47;;;15.90;99.90;;;;;;4954870;28;98982;-73
2023/03/25 12:21:12;;;;;;;13.07;3.00;;;15.50;99.90;;;;;;4969736;28;99304;-73
2023/03/25 12:23:51;;;;;;;14.75;3.38;;;15.10;99.90;;;;;;4922350;28;98682;-73
2023/03/25 12:26:38;;;;;;;15.75;3.58;;;14.80;99.90;;;;;;4969676;28;99262;-73
2023/03/25 12:29:33;;;;;;;9.90;2.42;;;14.50;99.90;;;;;;4954600;28;99078;-73
2023/03/25 12:32:10;;;;;;;14.05;3.67;;;14.40;99.90;;;;;;4954364;28;98756;-73
2023/03/25 12:34:55;;;;;;;10.00;2.53;;;14.30;99.90;;;;;;4955269;28;98543;-73
2023/03/25 12:37:25;;;;;;;12.20;2.40;;;14.30;99.90;;;;;;4969656;28;99410;-73
2023/03/25 12:40:19;;;;;;;10.25;2.90;;;14.40;99.90;;;;;;4954878;28;98690;-73
2023/03/25 12:42:55;;;;;;;10.85;2.45;;;14.50;99.90;;;;;;4955100;28;99020;-73
2023/03/25 12:45:36;;;;;;;12.00;2.70;;;14.60;99.90;;;;;;4955126;28;98430;-73
2023/03/25 12:48:21;;;;;;;11.25;2.70;;;14.70;99.90;;;;;;4954536;28;99997;-73
2023/03/25 12:50:57;;;;;;;8.60;1.98;;;14.80;99.90;;;;;;4954322;28;99733;-73
2023/03/25 12:53:50;;;;;;;11.98;2.58;;;14.80;99.90;;;;;;4954865;28;98519;-73
2023/03/25 12:56:29;;;;;;;9.20;2.35;;;15.00;99.90;;;;;;4954881;28;98604;-72
2023/03/25 12:59:02;;;;;;;11.30;2.50;;;15.00;99.90;;;;;;4954480;28;99304;-73
2023/03/25 13:01:43;;;;;;;8.70;2.27;;;15.00;99.90;;;;;;4954175;28;99055;-73
2023/03/25 13:04:41;;;;;;;8.02;2.35;;;15.10;99.90;;;;;;4969229;28;98600;-73
2023/03/25 13:07:13;;;;;;;9.20;2.42;;;15.10;99.90;;;;;;4942153;28;98930;-73
2023/03/25 13:10:14;;;;;;;7.55;2.10;;;15.30;99.90;;;;;;4952851;28;102119;-73
2023/03/25 13:12:48;;;;;;;11.15;2.85;;;15.30;99.90;;;;;;4954475;28;99119;-73